Terminal Aerodrome Forecast
Issued by NWS

Home | Current Version | Previous Version | Text Only | Print | Product List | Glossary On
Versions: 1 2 3 4 5 6 7 8 9 10 11 12 13 14 15 16 17 18 19 20 21 22 23 24 25 26 27 28 29
000
FTUS43 KGLD 111700
TAFMCK
TAF
KMCK 111720Z 1118/1218 15010KT P6SM SCT250
     FM120000 19015G25KT P6SM VCTS SCT060CB BKN110
     FM120900 04010KT P6SM VCSH BKN100
     FM121400 04008KT P6SM SCT120=

USA.gov is the U.S. government's official web portal to all federal, state and local government web resources and services.